createdAt,value
2019-02-20T00:00:03.727Z,99679.08
2019-02-20T00:02:37.369Z,99681.80
2019-02-20T00:05:10.019Z,99683.16
2019-02-20T00:07:42.480Z,99685.88
2019-02-20T00:10:15.052Z,99693.44
2019-02-20T00:12:47.287Z,99693.73
2019-02-20T00:15:19.661Z,99699.71
2019-02-20T00:17:52.143Z,99699.17
2019-02-20T00:20:24.464Z,99700.03
2019-02-20T00:22:56.779Z,99696.16
2019-02-20T00:25:29.297Z,99705.70
2019-02-20T00:28:01.837Z,99706.84
2019-02-20T00:30:34.268Z,99698.96
2019-02-20T00:33:06.850Z,99702.22
2019-02-20T00:35:39.363Z,99712.79
2019-02-20T00:38:11.690Z,99713.33
2019-02-20T00:40:44.107Z,99710.92
2019-02-20T00:43:16.575Z,99710.39
2019-02-20T00:46:06.070Z,99714.37
2019-02-20T00:48:55.561Z,99718.77
2019-02-20T00:51:40.123Z,99726.12
2019-02-20T00:54:12.722Z,99731.85
2019-02-20T00:56:45.149Z,99743.61
2019-02-20T00:59:17.757Z,99741.38
2019-02-20T01:01:50.221Z,99743.17
2019-02-20T01:04:22.425Z,99750.84
2019-02-20T01:06:54.831Z,99747.26
2019-02-20T01:09:27.328Z,99759.72
2019-02-20T01:11:59.962Z,99751.55
2019-02-20T01:14:32.347Z,99758.36
2019-02-20T01:17:04.701Z,99758.69
2019-02-20T01:19:37.165Z,99767.36
2019-02-20T01:22:09.737Z,99769.58
2019-02-20T01:24:42.127Z,99777.53
2019-02-20T01:27:14.456Z,99793.76
2019-02-20T01:29:46.842Z,99788.10
2019-02-20T01:32:19.167Z,99799.20
2019-02-20T01:34:51.670Z,99792.08
2019-02-20T01:37:25.293Z,99806.55
2019-02-20T01:39:57.698Z,99806.02
2019-02-20T01:42:30.140Z,99803.50
2019-02-20T01:45:02.551Z,99805.90
2019-02-20T01:47:35.141Z,99801.31
2019-02-20T01:50:07.743Z,99817.86
2019-02-20T01:52:40.322Z,99821.09
2019-02-20T01:55:12.897Z,99816.38
2019-02-20T01:57:45.484Z,99814.18
2019-02-20T02:00:17.832Z,99824.25
2019-02-20T02:02:50.227Z,99824.54
2019-02-20T02:05:22.788Z,99824.25
2019-02-20T02:07:56.084Z,99828.55
2019-02-20T02:10:28.351Z,99832.30
2019-02-20T02:13:00.921Z,99835.34
2019-02-20T02:15:33.458Z,99836.39
2019-02-20T02:18:05.930Z,99839.32
2019-02-20T02:20:38.344Z,99846.74
2019-02-20T02:23:19.413Z,99852.94
2019-02-20T02:25:44.390Z,99845.09
2019-02-20T02:28:16.823Z,99850.53
2019-02-20T02:30:49.255Z,99846.95
2019-02-20T02:33:21.597Z,99853.34
2019-02-20T02:35:54.168Z,99858.05
2019-02-20T02:38:26.488Z,99855.98
2019-02-20T02:40:59.860Z,99855.66
2019-02-20T02:43:32.352Z,99864.87
2019-02-20T02:46:04.927Z,99869.77
2019-02-20T02:48:37.402Z,99872.70
2019-02-20T02:51:09.906Z,99878.80
2019-02-20T02:53:42.504Z,99875.75
2019-02-20T02:56:14.867Z,99887.59
2019-02-20T02:58:47.379Z,99892.53
2019-02-20T03:01:19.952Z,99897.86
2019-02-20T03:03:53.919Z,99905.17
2019-02-20T03:06:26.557Z,99920.86
2019-02-20T03:08:58.831Z,99936.12
2019-02-20T03:11:33.216Z,99938.55
2019-02-20T03:14:05.916Z,99947.22
2019-02-20T03:16:38.514Z,99948.79
2019-02-20T03:19:11.193Z,99947.64
2019-02-20T03:21:43.509Z,99950.89
2019-02-20T03:24:16.230Z,99948.37
2019-02-20T03:26:48.830Z,99951.10
2019-02-20T03:29:21.463Z,99950.77
2019-02-20T03:31:54.108Z,99953.50
2019-02-20T03:34:26.252Z,99958.11
2019-02-20T03:36:58.525Z,99957.25
2019-02-20T03:39:31.905Z,99966.77
2019-02-20T03:42:04.596Z,99970.03
2019-02-20T03:44:37.009Z,99969.17
2019-02-20T03:47:09.307Z,99975.80
2019-02-20T03:49:41.833Z,99979.02
2019-02-20T03:52:14.319Z,99985.63
2019-02-20T03:54:46.947Z,99991.81
2019-02-20T03:57:19.477Z,99994.86
2019-02-20T03:59:51.580Z,99980.39
2019-02-20T04:02:24.007Z,99951.19
2019-02-20T04:04:56.475Z,99948.47
2019-02-20T04:07:28.974Z,99980.59
2019-02-20T04:10:01.258Z,100002.04
2019-02-20T04:12:34.752Z,99988.63
2019-02-20T04:15:07.435Z,100004.97
2019-02-20T04:17:39.804Z,100023.52
2019-02-20T04:20:12.454Z,100029.16
2019-02-20T04:22:44.736Z,100019.64
2019-02-20T04:25:17.416Z,100012.50
2019-02-20T04:27:49.785Z,99977.63
2019-02-20T04:30:22.619Z,99965.91
2019-02-20T04:32:55.194Z,99961.50
2019-02-20T04:35:29.387Z,99968.30
2019-02-20T04:38:01.961Z,99964.55
2019-02-20T04:40:34.460Z,99962.86
2019-02-20T04:43:06.820Z,99957.42
2019-02-20T04:45:39.509Z,99937.75
2019-02-20T04:48:12.860Z,99924.84
2019-02-20T04:50:45.366Z,99902.05
2019-02-20T04:53:17.677Z,99911.56
2019-02-20T04:55:50.246Z,99961.91
2019-02-20T04:58:23.240Z,100023.14
2019-02-20T05:00:56.328Z,100057.48
2019-02-20T05:03:28.767Z,100073.81
2019-02-20T05:06:01.292Z,100084.37
2019-02-20T05:08:33.863Z,100096.30
2019-02-20T05:11:06.305Z,100093.90
2019-02-20T05:13:38.753Z,100092.39
2019-02-20T05:16:11.481Z,100087.85
2019-02-20T05:18:43.905Z,100097.58
2019-02-20T05:21:16.425Z,100089.74
2019-02-20T05:23:48.846Z,100085.66
2019-02-20T05:26:21.476Z,100084.95
2019-02-20T05:28:53.999Z,100088.17
2019-02-20T05:31:26.699Z,100081.37
2019-02-20T05:33:59.105Z,100085.25
2019-02-20T05:36:31.648Z,100075.43
2019-02-20T05:39:04.915Z,100055.02
2019-02-20T05:41:37.417Z,100030.20
2019-02-20T05:44:09.754Z,100013.87
2019-02-20T05:46:41.906Z,100021.83
2019-02-20T05:49:14.377Z,100026.44
2019-02-20T05:51:46.932Z,100023.89
2019-02-20T05:54:19.520Z,100030.20
2019-02-20T05:56:51.906Z,100040.22
2019-02-20T05:59:24.426Z,100033.95
2019-02-20T06:01:57.928Z,100047.62
2019-02-20T06:04:30.382Z,100057.80
2019-02-20T06:07:02.964Z,100051.78
2019-02-20T06:09:36.494Z,100059.00
2019-02-20T06:12:08.815Z,100052.98
2019-02-20T06:14:41.336Z,100051.32
2019-02-20T06:17:14.131Z,100052.16
2019-02-20T06:19:46.489Z,100058.95
2019-02-20T06:22:19.007Z,100058.83
2019-02-20T06:24:51.382Z,100055.91
2019-02-20T06:27:23.704Z,100056.11
2019-02-20T06:29:56.032Z,100042.50
2019-02-20T06:32:28.504Z,100039.78
2019-02-20T06:35:00.994Z,100035.20
2019-02-20T06:37:33.452Z,100043.53
2019-02-20T06:40:06.247Z,100037.05
2019-02-20T06:42:38.918Z,100015.94
2019-02-20T06:45:11.615Z,100033.37
2019-02-20T06:56:07.703Z,99913.73
2019-02-20T06:58:42.222Z,99896.97
2019-02-20T07:01:16.486Z,99894.77
2019-02-20T07:03:51.744Z,99896.14
2019-02-20T07:06:49.770Z,99885.80
2019-02-20T07:09:59.094Z,99907.62
2019-02-20T07:12:46.674Z,99917.37
2019-02-20T07:16:00.177Z,99963.45
2019-02-20T07:18:42.953Z,99986.10
2019-02-20T07:21:57.182Z,99987.04
2019-02-20T07:24:52.580Z,100001.61
2019-02-20T07:28:04.283Z,100020.63
2019-02-20T07:30:38.433Z,100013.70
2019-02-20T07:33:12.790Z,100015.89
2019-02-20T07:35:47.193Z,100019.38
2019-02-20T07:38:21.537Z,100020.52
2019-02-20T07:40:56.077Z,99993.03
2019-02-20T07:43:30.377Z,99983.38
2019-02-20T07:46:04.540Z,99990.62
2019-02-20T07:48:38.585Z,99976.88
2019-02-20T07:51:14.932Z,99926.92
2019-02-20T07:53:49.270Z,99914.03
2019-02-20T07:56:24.151Z,99922.21
2019-02-20T07:58:58.985Z,99946.65
2019-02-20T08:01:33.407Z,99953.05
2019-02-20T08:04:07.707Z,99936.67
2019-02-20T08:06:41.917Z,99888.62
2019-02-20T08:09:16.056Z,99842.23
2019-02-20T08:11:50.183Z,99851.50
2019-02-20T08:14:24.447Z,99872.89
2019-02-20T08:16:59.459Z,99887.79
2019-02-20T08:19:33.698Z,99900.06
2019-02-20T08:22:07.902Z,99903.33
2019-02-20T08:24:42.021Z,99900.28
2019-02-20T08:27:16.446Z,99890.41
2019-02-20T08:29:50.669Z,99892.64
2019-02-20T08:32:24.972Z,99892.27
2019-02-20T08:34:59.077Z,99872.14
2019-02-20T08:37:33.485Z,99869.84
2019-02-20T08:40:08.313Z,99859.47
2019-02-20T08:42:42.410Z,99842.30
2019-02-20T08:45:17.725Z,99826.48
2019-02-20T08:47:52.081Z,99827.09
2019-02-20T08:50:26.239Z,99810.42
2019-02-20T08:53:00.611Z,99803.83
2019-02-20T08:55:34.835Z,99824.91
2019-02-20T08:58:09.427Z,99837.45
2019-02-20T09:00:44.839Z,99836.09
2019-02-20T09:03:19.666Z,99836.20
2019-02-20T09:05:54.769Z,99822.91
2019-02-20T09:08:29.936Z,99825.95
2019-02-20T09:11:04.653Z,99836.20
2019-02-20T09:13:38.918Z,99826.98
2019-02-20T09:16:13.009Z,99830.25
2019-02-20T09:18:47.224Z,99821.33
2019-02-20T09:21:21.428Z,99815.48
2019-02-20T09:23:56.177Z,99815.16
2019-02-20T09:26:30.188Z,99814.41
2019-02-20T09:29:04.224Z,99807.59
2019-02-20T09:31:39.209Z,99808.63
2019-02-20T09:34:13.471Z,99807.81
2019-02-20T09:36:47.625Z,99803.08
2019-02-20T09:39:43.164Z,99806.88
2019-02-20T09:42:18.947Z,99793.25
2019-02-20T09:44:53.417Z,99790.92
2019-02-20T09:47:27.761Z,99798.66
2019-02-20T09:50:03.331Z,99795.72
2019-02-20T09:52:38.627Z,99808.70
2019-02-20T09:55:13.572Z,99798.13
2019-02-20T09:57:47.748Z,99796.58
2019-02-20T10:00:22.217Z,99798.55
2019-02-20T10:02:56.512Z,99800.63
2019-02-20T10:05:30.670Z,99790.88
2019-02-20T10:08:04.892Z,99798.02
2019-02-20T10:10:39.767Z,99792.06
2019-02-20T10:13:14.143Z,99791.53
2019-02-20T10:15:48.323Z,99795.40
2019-02-20T10:18:22.648Z,99777.19
2019-02-20T10:20:57.808Z,99777.08
2019-02-20T10:23:31.908Z,99768.16
2019-02-20T10:26:06.803Z,99759.86
2019-02-20T10:28:43.108Z,99765.95
2019-02-20T10:31:17.628Z,99782.81
2019-02-20T10:33:52.077Z,99796.77
2019-02-20T10:36:26.530Z,99804.55
2019-02-20T10:39:00.746Z,99808.84
2019-02-20T10:41:36.492Z,99812.94
2019-02-20T10:44:11.305Z,99807.48
2019-02-20T10:46:45.833Z,99797.19
2019-02-20T10:49:20.339Z,99791.42
2019-02-20T10:51:54.640Z,99780.23
2019-02-20T10:54:28.993Z,99774.03
2019-02-20T10:57:03.409Z,99769.51
2019-02-20T10:59:37.552Z,99760.94
2019-02-20T11:02:12.136Z,99759.47
2019-02-20T11:04:46.782Z,99780.52
2019-02-20T11:07:22.230Z,99793.42
2019-02-20T11:09:56.478Z,99807.27
2019-02-20T11:12:31.763Z,99812.94
2019-02-20T11:15:07.387Z,99808.92
2019-02-20T11:17:42.152Z,99807.05
2019-02-20T11:20:17.295Z,99819.93
2019-02-20T11:22:51.179Z,99830.51
2019-02-20T11:25:25.241Z,99829.47
2019-02-20T11:27:59.545Z,99822.05
2019-02-20T11:30:33.715Z,99812.50
2019-02-20T11:33:10.059Z,99805.69
2019-02-20T11:35:44.396Z,99807.16
2019-02-20T11:38:19.338Z,99809.34
2019-02-20T11:40:53.964Z,99816.27
2019-02-20T11:43:28.325Z,99813.55
2019-02-20T11:46:02.787Z,99815.84
2019-02-20T11:48:37.172Z,99817.09
2019-02-20T11:51:11.573Z,99813.94
2019-02-20T11:53:47.061Z,99813.76
2019-02-20T11:56:26.638Z,99831.77
2019-02-20T11:58:57.045Z,99844.14
2019-02-20T12:01:31.583Z,99851.16
2019-02-20T12:04:07.114Z,99837.86
2019-02-20T12:06:41.256Z,99844.78
2019-02-20T12:09:15.507Z,99835.74
2019-02-20T12:11:51.059Z,99833.45
2019-02-20T12:14:26.508Z,99825.98
2019-02-20T12:17:00.812Z,99834.16
2019-02-20T12:19:35.100Z,99825.55
2019-02-20T12:22:09.662Z,99836.66
2019-02-20T12:24:44.061Z,99827.00
2019-02-20T12:27:18.379Z,99823.84
2019-02-20T12:29:52.894Z,99814.45
2019-02-20T12:32:27.198Z,99807.20
2019-02-20T12:35:01.623Z,99811.27
2019-02-20T12:37:36.061Z,99808.92
2019-02-20T12:40:10.299Z,99802.80
2019-02-20T12:42:44.641Z,99795.85
2019-02-20T12:45:18.653Z,99803.19
2019-02-20T12:47:52.926Z,99802.55
2019-02-20T12:50:28.194Z,99817.66
2019-02-20T12:53:02.432Z,99827.11
2019-02-20T12:55:37.656Z,99829.75
2019-02-20T12:58:12.068Z,99840.88
2019-02-20T13:00:46.359Z,99851.36
2019-02-20T13:03:20.963Z,99861.55
2019-02-20T13:05:55.120Z,99860.72
2019-02-20T13:08:29.893Z,99859.52
2019-02-20T13:11:04.436Z,99857.94
2019-02-20T13:13:38.426Z,99851.34
2019-02-20T13:16:12.643Z,99834.13
2019-02-20T13:18:46.932Z,99846.80
2019-02-20T13:21:22.061Z,99843.47
2019-02-20T13:23:56.285Z,99841.05
2019-02-20T13:26:30.591Z,99826.11
2019-02-20T13:29:04.846Z,99835.88
2019-02-20T13:31:39.246Z,99853.11
2019-02-20T13:34:13.983Z,99853.82
2019-02-20T13:36:48.214Z,99860.55
2019-02-20T13:39:22.493Z,99855.41
2019-02-20T13:41:56.727Z,99860.98
2019-02-20T13:44:32.164Z,99870.32
2019-02-20T13:47:06.473Z,99865.91
2019-02-20T13:49:40.909Z,99853.63
2019-02-20T13:52:15.311Z,99858.58
2019-02-20T13:54:50.665Z,99854.48
2019-02-20T13:57:25.202Z,99850.06
2019-02-20T13:59:59.404Z,99866.45
2019-02-20T14:02:33.773Z,99877.36
2019-02-20T14:05:08.250Z,99869.49
2019-02-20T14:07:42.444Z,99859.84
2019-02-20T14:10:16.449Z,99860.67
2019-02-20T14:12:50.661Z,99883.87
2019-02-20T14:15:24.913Z,99882.22
2019-02-20T14:17:58.943Z,99874.03
2019-02-20T14:20:33.434Z,99880.85
2019-02-20T14:23:07.670Z,99891.67
2019-02-20T14:25:42.015Z,99904.05
2019-02-20T14:28:16.164Z,99908.77
2019-02-20T14:30:50.326Z,99911.82
2019-02-20T14:33:24.448Z,99912.97
2019-02-20T14:35:58.710Z,99912.42
2019-02-20T14:38:32.854Z,99911.92
2019-02-20T14:41:07.086Z,99898.27
2019-02-20T14:43:41.583Z,99883.98
2019-02-20T14:46:17.958Z,99887.03
2019-02-20T14:48:52.460Z,99903.41
2019-02-20T14:51:27.618Z,99920.33
2019-02-20T14:54:01.870Z,99925.25
2019-02-20T14:56:36.130Z,99929.34
2019-02-20T14:59:10.210Z,99917.28
2019-02-20T15:01:45.703Z,99891.91
2019-02-20T15:04:23.765Z,99892.39
2019-02-20T15:06:58.830Z,99888.30
2019-02-20T15:09:33.138Z,99885.79
2019-02-20T15:12:07.688Z,99895.46
2019-02-20T15:14:41.776Z,99908.67
2019-02-20T15:17:16.322Z,99907.23
2019-02-20T15:19:51.105Z,99905.34
2019-02-20T15:22:25.991Z,99904.19
2019-02-20T15:25:00.438Z,99895.56
2019-02-20T15:27:34.929Z,99885.47
2019-02-20T15:30:12.690Z,99897.75
2019-02-20T15:32:47.037Z,99902.16
2019-02-20T15:35:22.201Z,99895.34
2019-02-20T15:37:56.281Z,99888.13
2019-02-20T15:40:30.481Z,99913.62
2019-02-20T15:43:04.644Z,99931.87
2019-02-20T15:45:39.160Z,99946.36
2019-02-20T15:48:13.436Z,99953.52
2019-02-20T15:50:47.438Z,99944.35
2019-02-20T15:53:21.653Z,99955.17
2019-02-20T15:55:55.652Z,99950.86
2019-02-20T15:58:29.766Z,99939.72
2019-02-20T16:01:05.641Z,99912.14
2019-02-20T16:03:39.894Z,99883.77
2019-02-20T16:06:14.040Z,99887.86
2019-02-20T16:08:48.351Z,99886.59
2019-02-20T16:11:22.467Z,99880.75
2019-02-20T16:13:56.466Z,99874.31
2019-02-20T16:16:30.668Z,99899.32
2019-02-20T16:19:04.967Z,99928.47
2019-02-20T16:21:39.203Z,99920.20
2019-02-20T16:24:14.383Z,99899.86
2019-02-20T16:26:48.476Z,99899.09
2019-02-20T16:29:22.840Z,99896.05
2019-02-20T16:31:57.206Z,99895.77
2019-02-20T16:34:31.475Z,99893.03
2019-02-20T16:37:06.917Z,99881.89
2019-02-20T16:39:42.171Z,99878.73
2019-02-20T16:42:16.458Z,99911.27
2019-02-20T16:44:50.796Z,99938.23
2019-02-20T16:47:25.435Z,99943.48
2019-02-20T16:49:59.679Z,99951.89
2019-02-20T16:52:34.264Z,99948.11
2019-02-20T16:55:08.702Z,99962.59
2019-02-20T16:57:44.069Z,99959.79
2019-02-20T17:00:19.978Z,99954.72
2019-02-20T17:02:54.428Z,99952.48
2019-02-20T17:05:28.980Z,99947.76
2019-02-20T17:08:03.362Z,99943.34
2019-02-20T17:10:37.553Z,99952.56
2019-02-20T17:13:12.100Z,99945.83
2019-02-20T17:15:46.215Z,99945.94
2019-02-20T17:18:20.588Z,99931.64
2019-02-20T17:20:54.922Z,99926.72
2019-02-20T17:23:29.360Z,99919.36
2019-02-20T17:26:03.792Z,99902.47
2019-02-20T17:28:37.908Z,99873.64
2019-02-20T17:31:12.850Z,99876.18
2019-02-20T17:33:47.118Z,99891.39
2019-02-20T17:36:21.539Z,99897.70
2019-02-20T17:38:55.883Z,99888.66
2019-02-20T17:41:30.182Z,99884.05
2019-02-20T17:44:04.185Z,99881.10
2019-02-20T17:46:38.549Z,99881.83
2019-02-20T17:49:12.672Z,99882.02
2019-02-20T17:51:48.193Z,99874.37
2019-02-20T17:54:22.466Z,99876.91
2019-02-20T17:56:57.045Z,99869.86
2019-02-20T17:59:31.270Z,99859.70
2019-02-20T18:02:05.998Z,99862.52
2019-02-20T18:04:40.155Z,99858.94
2019-02-20T18:07:14.493Z,99852.12
2019-02-20T18:09:48.820Z,99845.44
2019-02-20T18:12:23.893Z,99852.23
2019-02-20T18:14:59.200Z,99850.66
2019-02-20T18:17:33.263Z,99854.84
2019-02-20T18:20:07.622Z,99851.17
2019-02-20T18:22:43.684Z,99848.13
2019-02-20T18:25:17.920Z,99845.30
2019-02-20T18:27:52.147Z,99851.09
2019-02-20T18:30:26.365Z,99842.08
2019-02-20T18:33:00.686Z,99845.91
2019-02-20T18:35:36.061Z,99836.79
2019-02-20T18:38:10.451Z,99845.30
2019-02-20T18:40:45.660Z,99835.20
2019-02-20T18:43:19.884Z,99824.85
2019-02-20T18:45:55.103Z,99827.23
2019-02-20T18:48:29.612Z,99828.00
2019-02-20T18:51:04.178Z,99829.16
2019-02-20T18:53:38.522Z,99829.00
2019-02-20T18:56:12.722Z,99826.22
2019-02-20T18:58:46.690Z,99812.80
2019-02-20T19:01:21.272Z,99818.79
2019-02-20T19:03:56.757Z,99811.99
2019-02-20T19:06:31.027Z,99811.03
2019-02-20T19:09:23.614Z,99810.84
2019-02-20T19:12:47.267Z,99809.51
2019-02-20T19:15:57.963Z,99801.32
2019-02-20T19:19:07.314Z,99795.45
2019-02-20T19:22:31.296Z,99796.88
2019-02-20T19:25:39.252Z,99789.58
2019-02-20T19:28:29.128Z,99782.38
2019-02-20T19:31:43.308Z,99786.11
2019-02-20T19:34:57.746Z,99786.84
2019-02-20T19:38:21.935Z,99785.39
2019-02-20T19:41:35.531Z,99785.67
2019-02-20T19:44:42.911Z,99785.61
2019-02-20T19:47:25.865Z,99784.78
2019-02-20T19:50:24.328Z,99786.81
2019-02-20T19:53:24.159Z,99797.00
2019-02-20T19:56:09.585Z,99790.40
2019-02-20T19:59:08.959Z,99783.80
2019-02-20T20:02:07.690Z,99786.84
2019-02-20T20:05:15.339Z,99781.48
2019-02-20T20:08:37.734Z,99774.02
2019-02-20T20:12:10.549Z,99782.46
2019-02-20T20:15:04.287Z,99779.00
2019-02-20T20:18:12.822Z,99778.08
2019-02-20T20:21:38.652Z,99773.70
2019-02-20T20:24:37.183Z,99772.11
2019-02-20T20:27:55.455Z,99763.88
2019-02-20T20:30:46.278Z,99769.93
2019-02-20T20:34:04.959Z,99778.63
2019-02-20T20:37:07.462Z,99773.77
2019-02-20T20:40:01.951Z,99777.04
2019-02-20T20:43:16.875Z,99765.27
2019-02-20T20:46:25.397Z,99766.85
2019-02-20T20:49:29.751Z,99769.77
2019-02-20T20:52:58.680Z,99768.28
2019-02-20T20:56:19.753Z,99766.09
2019-02-20T20:59:24.306Z,99772.08
2019-02-20T21:02:38.214Z,99773.77
2019-02-20T21:05:44.235Z,99772.43
2019-02-20T21:08:27.911Z,99764.82
2019-02-20T21:11:38.180Z,99759.33
2019-02-20T21:14:45.094Z,99751.91
2019-02-20T21:17:54.304Z,99758.00
2019-02-20T21:20:59.329Z,99746.26
2019-02-20T21:24:28.479Z,99754.00
2019-02-20T21:27:37.617Z,99759.94
2019-02-20T21:30:52.755Z,99750.67
2019-02-20T21:33:56.654Z,99755.33
2019-02-20T21:36:41.403Z,99756.54
2019-02-20T21:40:07.196Z,99752.64
2019-02-20T21:42:52.673Z,99757.62
2019-02-20T21:45:51.083Z,99763.08
2019-02-20T21:48:59.152Z,99767.42
2019-02-20T21:51:46.585Z,99749.87
2019-02-20T21:55:06.827Z,99743.53
2019-02-20T21:58:20.374Z,99736.08
2019-02-20T22:01:21.286Z,99750.55
2019-02-20T22:04:52.621Z,99746.70
2019-02-20T22:08:20.499Z,99729.06
2019-02-20T22:11:24.403Z,99743.31
2019-02-20T22:14:33.306Z,99744.36
2019-02-20T22:17:48.611Z,99728.05
2019-02-20T22:21:24.114Z,99718.05
2019-02-20T22:24:46.559Z,99718.41
2019-02-20T22:28:04.019Z,99717.86
2019-02-20T22:31:08.928Z,99713.42
2019-02-20T22:34:28.875Z,99705.94
2019-02-20T22:37:32.404Z,99678.05
2019-02-20T22:40:39.751Z,99668.96
2019-02-20T22:44:01.771Z,99673.64
2019-02-20T22:47:24.666Z,99693.95
2019-02-20T22:50:21.856Z,99700.67
2019-02-20T22:53:25.133Z,99711.52
2019-02-20T22:56:38.743Z,99729.00
2019-02-20T22:59:37.409Z,99718.78
2019-02-20T23:02:59.089Z,99723.80
2019-02-20T23:06:14.846Z,99727.16
2019-02-20T23:09:24.343Z,99729.57
2019-02-20T23:12:21.585Z,99737.16
2019-02-20T23:14:59.776Z,99712.88
2019-02-20T23:17:34.017Z,99718.97
2019-02-20T23:20:08.406Z,99724.88
2019-02-20T23:22:42.652Z,99715.36
2019-02-20T23:25:16.994Z,99708.63
2019-02-20T23:27:51.642Z,99710.95
2019-02-20T23:30:25.918Z,99708.06
2019-02-20T23:33:00.807Z,99708.00
2019-02-20T23:35:36.266Z,99703.91
2019-02-20T23:38:10.402Z,99707.08
2019-02-20T23:40:44.612Z,99716.18
2019-02-20T23:43:18.848Z,99725.52
2019-02-20T23:45:53.233Z,99723.45
2019-02-20T23:48:27.407Z,99721.03
2019-02-20T23:51:01.561Z,99721.77
2019-02-20T23:53:35.918Z,99718.50
2019-02-20T23:56:10.705Z,99716.75
2019-02-20T23:58:46.060Z,99711.52
